Time;durP1;ratioP1;P1;durP2;ratioP2;P2;SDS_P1;SDS_P2;PMS_P1;PMS_P2;Temp;Humidity;BMP_temperature;BMP_pressure;BME280_temperature;BME280_humidity;BME280_pressure;Samples;Min_cycle;Max_cycle;Signal;HPM_P1;HPM_P2
2023/12/20 15:21:11;;;;;;;1.48;1.13;;;;;;;11.27;23.54;92060.22;5071352;27;20367;-77
2023/12/20 15:23:37;;;;;;;0.80;0.80;;;;;;;11.18;23.71;92064.63;5075120;28;20033;-79
2023/12/20 15:26:28;;;;;;;1.00;1.00;;;;;;;11.10;23.45;92066.13;5076040;28;20027;-79
2023/12/20 15:28:54;;;;;;;1.00;0.90;;;;;;;11.14;22.99;92069.69;5073164;28;20107;-79
2023/12/20 15:31:26;;;;;;;1.10;1.00;;;;;;;11.06;23.61;92070.41;5070450;28;20108;-79
2023/12/20 15:33:51;;;;;;;1.38;1.00;;;;;;;11.03;23.98;92071.78;5073919;28;20037;-78
2023/12/20 15:36:19;;;;;;;1.73;1.10;;;;;;;11.03;24.43;92081.47;5063368;28;20036;-78
2023/12/20 15:38:45;;;;;;;2.05;1.23;;;;;;;10.86;24.64;92087.38;5053627;28;20041;-78
2023/12/20 15:41:18;;;;;;;1.02;0.90;;;;;;;10.77;24.76;92081.31;5053744;28;20402;-78
2023/12/20 15:43:44;;;;;;;0.90;0.90;;;;;;;10.70;24.67;92088.78;5053717;28;20075;-78
2023/12/20 15:46:11;;;;;;;1.75;1.00;;;;;;;10.58;24.32;92089.28;5052842;28;20029;-78
2023/12/20 15:48:36;;;;;;;1.00;0.90;;;;;;;10.60;24.50;92092.38;5053392;28;20045;-78
2023/12/20 15:51:06;;;;;;;8.13;5.00;;;;;;;10.65;24.65;92096.75;5052608;28;20033;-78
2023/12/20 15:53:31;;;;;;;2.60;1.50;;;;;;;10.52;25.36;92095.72;5052452;28;20072;-78
2023/12/20 15:55:57;;;;;;;3.20;1.30;;;;;;;10.46;24.94;92094.28;5054778;28;20021;-78
2023/12/20 15:58:23;;;;;;;1.55;1.10;;;;;;;10.29;25.14;92103.53;5052132;28;20034;-78
2023/12/20 16:00:49;;;;;;;1.02;0.90;;;;;;;10.32;25.14;92089.84;5052362;28;20067;-78
2023/12/20 16:03:14;;;;;;;1.50;1.10;;;;;;;10.29;25.24;92094.88;5053321;28;20041;-78
2023/12/20 16:05:40;;;;;;;1.30;1.20;;;;;;;10.21;25.28;92104.94;5053843;28;20457;-78
2023/12/20 16:08:06;;;;;;;3.42;1.63;;;;;;;10.25;25.27;92102.53;5055837;28;20034;-78
2023/12/20 16:10:31;;;;;;;2.53;1.45;;;;;;;10.05;25.32;92108.94;5053812;28;20111;-78
2023/12/20 16:12:57;;;;;;;3.70;1.98;;;;;;;10.03;25.78;92112.91;5054222;28;20037;-78
2023/12/20 16:15:22;;;;;;;3.00;0.98;;;;;;;9.93;25.84;92116.47;5052457;28;20039;-78
2023/12/20 16:17:48;;;;;;;1.10;1.00;;;;;;;9.87;26.12;92109.81;5053405;28;20119;-78
2023/12/20 16:20:14;;;;;;;6.15;1.70;;;;;;;9.85;25.62;92112.69;5054668;28;20578;-78
2023/12/20 16:22:40;;;;;;;4.30;2.58;;;;;;;9.77;26.03;92122.00;5051553;28;20608;-78
2023/12/20 16:25:07;;;;;;;7.45;2.90;;;;;;;9.79;26.46;92117.25;5052420;28;20202;-78
2023/12/20 16:27:33;;;;;;;1.20;1.10;;;;;;;9.64;26.51;92114.91;5053240;28;20049;-79
2023/12/20 16:29:59;;;;;;;2.08;1.60;;;;;;;9.59;26.22;92102.72;5058201;28;20095;-79
2023/12/20 16:32:26;;;;;;;1.77;1.20;;;;;;;9.61;26.71;92115.47;5060257;28;20089;-78
2023/12/20 16:34:52;;;;;;;2.45;1.40;;;;;;;9.61;26.74;92114.72;5036367;28;20070;-78
2023/12/20 16:37:18;;;;;;;3.70;1.50;;;;;;;9.47;26.93;92112.06;5058013;28;20040;-77
2023/12/20 16:39:44;;;;;;;2.97;1.30;;;;;;;9.41;27.24;92119.22;5056352;28;20099;-78
2023/12/20 16:42:09;;;;;;;2.45;1.60;;;;;;;9.41;27.46;92118.44;5057753;28;20079;-78
2023/12/20 16:44:35;;;;;;;4.28;1.40;;;;;;;9.36;27.90;92125.31;5042992;28;20036;-78
2023/12/20 16:47:02;;;;;;;1.67;1.20;;;;;;;9.44;26.43;92123.13;5045129;28;20112;-78
2023/12/20 16:49:28;;;;;;;0.98;0.95;;;;;;;9.33;26.85;92123.28;5042258;28;20407;-79
2023/12/20 16:51:53;;;;;;;0.80;0.80;;;;;;;9.25;27.11;92133.59;5044094;28;20041;-78
2023/12/20 16:54:19;;;;;;;4.45;2.25;;;;;;;9.27;27.26;92124.41;5035585;28;20029;-78
2023/12/20 16:56:44;;;;;;;3.15;1.55;;;;;;;9.31;27.27;92124.63;5041045;28;20046;-79
2023/12/20 16:59:10;;;;;;;1.50;1.17;;;;;;;9.19;27.90;92122.47;5041911;28;20117;-78
2023/12/20 17:01:36;;;;;;;1.75;1.00;;;;;;;9.13;27.94;92139.28;5036384;28;20091;-78
2023/12/20 17:04:01;;;;;;;1.95;1.20;;;;;;;9.11;28.28;92141.38;5033398;28;20175;-78
2023/12/20 17:06:28;;;;;;;3.20;1.92;;;;;;;9.11;28.19;92136.16;5032339;28;20037;-77
2023/12/20 17:08:53;;;;;;;1.20;1.10;;;;;;;9.03;28.38;92128.97;5034942;28;20021;-77
2023/12/20 17:11:21;;;;;;;2.55;1.60;;;;;;;9.04;28.75;92131.31;5054018;28;20447;-77
2023/12/20 17:13:47;;;;;;;2.05;1.38;;;;;;;9.17;28.06;92138.41;5055386;28;20044;-77
2023/12/20 17:16:12;;;;;;;2.30;1.48;;;;;;;9.16;28.66;92138.69;5065464;28;20032;-77
2023/12/20 17:18:40;;;;;;;5.43;2.35;;;;;;;9.04;28.96;92146.19;5074942;28;20101;-77
2023/12/20 17:21:08;;;;;;;1.33;1.00;;;;;;;9.09;28.82;92135.66;5062536;28;20080;-78
2023/12/20 17:23:34;;;;;;;1.45;1.02;;;;;;;8.99;29.18;92141.06;5061640;28;20102;-79
2023/12/20 17:25:59;;;;;;;1.95;1.08;;;;;;;9.02;29.12;92140.47;5062536;28;20041;-78
2023/12/20 17:28:25;;;;;;;1.15;1.05;;;;;;;8.97;29.40;92143.94;5046669;28;20041;-78
2023/12/20 17:30:52;;;;;;;1.90;1.20;;;;;;;8.89;29.57;92142.75;5048626;28;20124;-79
2023/12/20 17:33:18;;;;;;;1.02;0.90;;;;;;;8.90;29.56;92153.97;5054044;28;20029;-79
2023/12/20 17:35:44;;;;;;;4.18;2.05;;;;;;;8.95;29.65;92149.44;5042313;28;20382;-77
2023/12/20 17:38:10;;;;;;;1.30;1.02;;;;;;;9.08;29.56;92166.22;5038137;28;20027;-78
2023/12/20 17:40:39;;;;;;;1.50;1.10;;;;;;;8.91;29.62;92163.34;5039386;28;20041;-78
2023/12/20 17:43:05;;;;;;;1.23;0.90;;;;;;;8.79;29.65;92170.84;5048141;28;20039;-78
2023/12/20 17:45:30;;;;;;;1.52;1.10;;;;;;;8.75;30.00;92178.44;5046922;28;20113;-79
2023/12/20 17:47:57;;;;;;;1.10;1.00;;;;;;;8.77;30.23;92173.72;5055590;28;20079;-78
2023/12/20 17:50:25;;;;;;;4.53;2.15;;;;;;;8.67;30.15;92185.09;5043240;28;20041;-80
2023/12/20 17:52:51;;;;;;;4.85;2.30;;;;;;;8.86;30.08;92182.47;5044854;28;20045;-79
2023/12/20 17:55:17;;;;;;;2.85;1.90;;;;;;;8.85;29.96;92190.56;5053179;28;20038;-80
2023/12/20 17:57:42;;;;;;;1.38;1.10;;;;;;;8.66;30.83;92177.53;5056997;28;20507;-80
2023/12/20 18:00:24;;;;;;;1.95;1.10;;;;;;;8.57;30.42;92181.81;5064654;28;20048;-81
2023/12/20 18:02:51;;;;;;;1.52;1.27;;;;;;;8.62;30.80;92200.00;5061286;28;20143;-80
2023/12/20 18:05:16;;;;;;;4.13;2.10;;;;;;;8.63;30.57;92198.97;5040718;28;20040;-78
2023/12/20 18:07:48;;;;;;;3.33;1.60;;;;;;;8.52;31.02;92196.47;5042438;28;20037;-80
2023/12/20 18:10:14;;;;;;;1.00;0.90;;;;;;;8.55;30.95;92192.53;5042585;28;20029;-80
2023/12/20 18:12:39;;;;;;;1.52;1.20;;;;;;;8.53;30.79;92195.44;5050339;28;20053;-79
2023/12/20 18:15:06;;;;;;;1.27;1.17;;;;;;;8.47;30.93;92193.94;5057121;28;20159;-80
2023/12/20 18:17:31;;;;;;;2.72;1.60;;;;;;;8.46;30.97;92199.44;5043095;28;20033;-82
2023/12/20 18:19:59;;;;;;;7.90;3.85;;;;;;;8.49;31.31;92199.66;5049321;28;20064;-82
2023/12/20 18:22:25;;;;;;;2.03;1.33;;;;;;;8.45;31.74;92209.09;5050810;28;20056;-82
2023/12/20 18:24:51;;;;;;;6.75;3.38;;;;;;;8.47;30.97;92212.19;5052016;28;20095;-81
2023/12/20 18:27:17;;;;;;;0.90;0.90;;;;;;;8.55;30.93;92203.72;5049976;28;20041;-82
2023/12/20 18:29:42;;;;;;;0.93;0.90;;;;;;;8.45;31.54;92200.50;5060700;28;20037;-82
2023/12/20 18:32:08;;;;;;;2.50;1.38;;;;;;;8.40;31.75;92203.94;5055054;28;20037;-81
2023/12/20 18:34:33;;;;;;;1.38;1.05;;;;;;;8.40;31.60;92216.16;5050195;28;20045;-82
2023/12/20 18:36:59;;;;;;;1.08;0.98;;;;;;;8.40;31.86;92227.41;5056948;28;20033;-81
2023/12/20 18:39:25;;;;;;;1.33;1.00;;;;;;;8.33;31.58;92235.53;5047821;28;20033;-82
2023/12/20 18:41:51;;;;;;;1.10;1.00;;;;;;;8.33;32.09;92243.38;5048874;28;20051;-80
2023/12/20 18:44:16;;;;;;;0.70;0.70;;;;;;;8.42;31.71;92230.53;5053745;28;20482;-81
2023/12/20 18:46:44;;;;;;;1.20;1.10;;;;;;;8.53;31.16;92242.41;5048821;28;20200;-81
2023/12/20 18:49:10;;;;;;;1.25;0.88;;;;;;;8.50;31.12;92247.38;5053958;28;20025;-81
2023/12/20 18:51:35;;;;;;;0.77;0.77;;;;;;;8.60;31.48;92241.25;5046933;28;20041;-81
2023/12/20 18:54:01;;;;;;;1.08;0.98;;;;;;;8.49;31.58;92245.84;5041884;28;20041;-80
2023/12/20 18:56:27;;;;;;;1.08;1.00;;;;;;;8.64;30.87;92239.66;5031801;28;20029;-81
2023/12/20 18:58:53;;;;;;;1.10;1.00;;;;;;;8.55;31.38;92240.25;5046178;28;20076;-81
2023/12/20 19:01:18;;;;;;;1.20;1.10;;;;;;;8.51;31.38;92231.47;5047892;28;20112;-82
2023/12/20 19:03:44;;;;;;;1.30;1.15;;;;;;;8.43;31.96;92245.09;5054350;28;20033;-81
2023/12/20 19:06:10;;;;;;;2.92;1.42;;;;;;;8.40;31.53;92248.28;5042018;28;20033;-80
2023/12/20 19:08:36;;;;;;;1.83;1.20;;;;;;;8.42;31.31;92256.59;5043699;28;20673;-81
2023/12/20 19:11:02;;;;;;;2.08;1.40;;;;;;;8.32;31.66;92259.28;5054959;28;20065;-81
2023/12/20 19:13:36;;;;;;;1.13;0.95;;;;;;;8.25;31.73;92257.00;5043360;28;20507;-83
2023/12/20 19:16:02;;;;;;;2.85;1.50;;;;;;;8.31;32.25;92255.91;5056293;28;20096;-81
2023/12/20 19:18:27;;;;;;;2.10;1.20;;;;;;;8.28;31.85;92258.28;5046875;28;20056;-80
2023/12/20 19:20:54;;;;;;;2.97;1.52;;;;;;;8.28;32.10;92258.28;5058889;28;20053;-82
2023/12/20 19:23:20;;;;;;;1.90;1.30;;;;;;;8.18;32.39;92261.00;5056323;28;20064;-82
2023/12/20 19:25:46;;;;;;;2.63;1.55;;;;;;;8.05;32.91;92252.75;5053697;28;20238;-81
2023/12/20 19:28:12;;;;;;;2.47;1.30;;;;;;;8.06;33.01;92277.81;5048370;28;20075;-82
2023/12/20 19:30:37;;;;;;;6.05;3.47;;;;;;;8.06;33.13;92280.41;5045708;28;20052;-81
2023/12/20 19:33:04;;;;;;;3.88;1.77;;;;;;;7.99;33.06;92279.16;5043859;28;20055;-82
2023/12/20 19:35:30;;;;;;;1.67;1.20;;;;;;;8.09;32.96;92277.25;5044620;28;20029;-80
2023/12/20 19:37:56;;;;;;;2.33;1.48;;;;;;;7.96;33.08;92275.28;5042089;28;20083;-82
2023/12/20 19:40:22;;;;;;;3.50;1.63;;;;;;;8.00;33.47;92284.09;5044921;28;20577;-82
2023/12/20 19:42:48;;;;;;;2.85;1.40;;;;;;;8.00;33.38;92278.88;5043507;28;20043;-82
2023/12/20 19:45:16;;;;;;;3.13;1.80;;;;;;;7.99;33.99;92274.72;5039003;28;20068;-82
2023/12/20 19:47:52;;;;;;;1.17;1.00;;;;;;;7.89;33.56;92280.81;5047660;28;20120;-82
2023/12/20 19:50:18;;;;;;;1.38;1.00;;;;;;;7.80;33.99;92289.50;5042377;28;20064;-82
2023/12/20 19:52:45;;;;;;;1.25;0.98;;;;;;;7.84;33.68;92287.91;5036034;28;20057;-83
2023/12/20 19:55:11;;;;;;;1.63;1.10;;;;;;;7.79;34.18;92296.53;5051892;28;20064;-83
2023/12/20 19:57:39;;;;;;;1.10;1.00;;;;;;;7.75;34.80;92294.75;5046345;28;20469;-82
2023/12/20 20:00:05;;;;;;;1.05;0.80;;;;;;;7.70;34.72;92309.38;5044957;28;20517;-82
2023/12/20 20:02:39;;;;;;;1.25;0.95;;;;;;;7.65;35.07;92313.81;5049048;28;20064;-83
2023/12/20 20:05:09;;;;;;;0.90;0.90;;;;;;;7.68;34.75;92315.91;5047371;28;20042;-83
2023/12/20 20:07:35;;;;;;;2.00;1.20;;;;;;;7.65;34.87;92301.56;5063308;28;20057;-82
2023/12/20 20:10:01;;;;;;;1.17;1.08;;;;;;;7.67;35.35;92304.69;5053596;28;20036;-83
2023/12/20 20:12:32;;;;;;;1.35;1.15;;;;;;;7.70;35.51;92319.00;5056884;28;20040;-83
2023/12/20 20:14:58;;;;;;;4.10;2.08;;;;;;;7.63;35.44;92315.91;5075422;28;20116;-83
2023/12/20 20:17:25;;;;;;;1.27;1.08;;;;;;;7.59;35.83;92323.53;5050488;28;20499;-83
2023/12/20 20:19:54;;;;;;;1.23;0.98;;;;;;;7.57;35.66;92311.81;5037249;28;20041;-82
2023/12/20 20:22:20;;;;;;;1.33;1.02;;;;;;;7.63;35.17;92319.31;5062636;28;20037;-82
2023/12/20 20:24:46;;;;;;;1.42;0.98;;;;;;;7.55;35.71;92319.91;5064610;28;20080;-82
2023/12/20 20:27:13;;;;;;;1.70;1.10;;;;;;;7.55;35.59;92322.50;5066355;28;20610;-83
2023/12/20 20:29:38;;;;;;;1.20;0.90;;;;;;;7.50;35.97;92319.94;5076520;28;20056;-83
2023/12/20 20:32:05;;;;;;;2.58;1.15;;;;;;;7.47;36.24;92320.47;5061571;28;20060;-82
2023/12/20 20:34:32;;;;;;;2.33;1.20;;;;;;;7.36;36.14;92318.97;5054912;28;20033;-82
2023/12/20 20:36:57;;;;;;;1.60;0.95;;;;;;;7.43;36.11;92315.03;5063111;28;20569;-82
2023/12/20 20:39:31;;;;;;;1.55;1.20;;;;;;;7.35;36.62;92312.97;5045395;28;20100;-82
2023/12/20 20:41:57;;;;;;;1.52;1.20;;;;;;;7.35;36.47;92309.59;5040904;28;20523;-83
2023/12/20 20:44:22;;;;;;;3.33;1.20;;;;;;;7.22;36.54;92309.16;5047733;28;20045;-83
2023/12/20 20:46:48;;;;;;;1.77;1.00;;;;;;;7.14;37.04;92312.34;5048174;28;20048;-83
2023/12/20 20:49:16;;;;;;;1.85;0.95;;;;;;;7.05;37.04;92304.31;5048809;28;20029;-83
2023/12/20 20:51:42;;;;;;;4.38;1.42;;;;;;;7.04;37.39;92304.56;5042079;28;20218;-82
2023/12/20 20:54:09;;;;;;;1.55;1.10;;;;;;;6.96;37.40;92297.31;5048054;28;20053;-83
2023/12/20 20:56:35;;;;;;;1.83;1.10;;;;;;;6.91;37.31;92307.75;5053983;28;20049;-83
2023/12/20 20:59:01;;;;;;;1.20;0.93;;;;;;;6.78;37.96;92296.88;5046954;28;20037;-82
2023/12/20 21:01:26;;;;;;;1.02;0.82;;;;;;;6.79;38.20;92308.84;5048406;28;20078;-83
2023/12/20 21:03:52;;;;;;;1.85;1.23;;;;;;;6.74;38.35;92303.66;5051010;28;20029;-82
2023/12/20 21:06:19;;;;;;;0.80;0.80;;;;;;;6.70;38.73;92291.44;5057540;28;20094;-83
2023/12/20 21:08:44;;;;;;;1.20;1.10;;;;;;;6.71;38.31;92293.78;5053910;28;20070;-83
2023/12/20 21:11:10;;;;;;;1.08;1.00;;;;;;;6.64;38.26;92293.28;5050967;28;20041;-81
2023/12/20 21:13:37;;;;;;;2.15;0.90;;;;;;;6.58;38.60;92299.56;5055977;28;20055;-82
2023/12/20 21:16:03;;;;;;;1.40;1.10;;;;;;;6.47;38.89;92289.19;5046842;28;20045;-82
2023/12/20 21:18:31;;;;;;;0.93;0.90;;;;;;;6.48;38.95;92297.75;5060821;28;20037;-82
2023/12/20 21:20:57;;;;;;;1.52;1.00;;;;;;;6.56;38.25;92275.63;5060616;28;20315;-81
2023/12/20 21:23:22;;;;;;;0.82;0.82;;;;;;;6.54;38.04;92280.31;5062004;28;20040;-80
2023/12/20 21:25:48;;;;;;;0.85;0.80;;;;;;;6.86;37.79;92270.28;5048438;28;20048;-80
2023/12/20 21:28:19;;;;;;;1.15;1.00;;;;;;;6.85;37.43;92279.16;5046784;28;20037;-80
2023/12/20 21:30:45;;;;;;;0.80;0.80;;;;;;;6.68;38.17;92287.28;5046649;28;20034;-80
2023/12/20 21:33:11;;;;;;;0.90;0.85;;;;;;;6.61;37.93;92278.22;5063836;28;20723;-80
2023/12/20 21:35:36;;;;;;;1.00;0.88;;;;;;;6.54;38.41;92275.13;5059257;28;20156;-80
2023/12/20 21:38:03;;;;;;;0.95;0.90;;;;;;;6.44;38.42;92279.31;5064021;28;20045;-80
2023/12/20 21:40:29;;;;;;;0.90;0.90;;;;;;;6.41;38.61;92279.06;5060782;28;20030;-79
2023/12/20 21:43:06;;;;;;;1.10;1.00;;;;;;;6.37;38.76;92276.22;5059960;28;20038;-80
2023/12/20 21:45:31;;;;;;;1.08;0.90;;;;;;;6.52;38.14;92279.81;5045271;28;20402;-80
2023/12/20 21:48:03;;;;;;;0.88;0.88;;;;;;;6.71;37.41;92272.19;5057430;28;20028;-79
2023/12/20 21:50:29;;;;;;;0.93;0.90;;;;;;;6.67;37.63;92266.75;5063818;28;20033;-80
2023/12/20 21:52:54;;;;;;;0.80;0.80;;;;;;;6.61;37.80;92267.81;5064257;28;20056;-79
2023/12/20 21:59:14;;;;;;;1.95;0.70;;;;;;;6.63;37.02;92266.50;5064159;28;20597;-80
2023/12/20 22:02:24;;;;;;;1.10;0.90;;;;;;;6.72;37.42;92268.56;5063559;28;20109;-79
2023/12/20 22:04:49;;;;;;;1.38;1.00;;;;;;;6.81;37.18;92256.53;5062712;28;20044;-80
2023/12/20 22:07:16;;;;;;;0.70;0.70;;;;;;;6.88;37.42;92257.03;5063067;28;20044;-80
2023/12/20 22:09:43;;;;;;;0.70;0.70;;;;;;;6.89;36.85;92253.38;5047758;28;20441;-79
2023/12/20 22:12:09;;;;;;;0.90;0.85;;;;;;;6.78;37.30;92247.44;5051912;28;20042;-80
